createdAt,value
2023-06-11T00:01:43.057Z,4.28
2023-06-11T00:04:27.582Z,3.90
2023-06-11T00:06:57.675Z,4.28
2023-06-11T00:09:25.541Z,3.92
2023-06-11T00:11:55.203Z,4.38
2023-06-11T00:14:24.896Z,4.78
2023-06-11T00:16:53.339Z,4.47
2023-06-11T00:19:22.389Z,4.38
2023-06-11T00:21:50.904Z,3.65
2023-06-11T00:24:18.995Z,3.97
2023-06-11T00:26:47.194Z,4.40
2023-06-11T00:29:14.978Z,5.38
2023-06-11T00:31:43.078Z,4.68
2023-06-11T00:34:11.393Z,4.28
2023-06-11T00:36:42.003Z,3.90
2023-06-11T00:39:09.846Z,4.40
2023-06-11T00:41:38.577Z,4.20
2023-06-11T00:44:07.415Z,3.83
2023-06-11T00:46:39.092Z,3.80
2023-06-11T00:49:06.978Z,4.10
2023-06-11T00:51:36.222Z,3.53
2023-06-11T00:54:04.040Z,3.78
2023-06-11T00:56:32.220Z,3.80
2023-06-11T00:59:00.949Z,3.72
2023-06-11T01:01:33.249Z,4.82
2023-06-11T01:04:02.873Z,3.90
2023-06-11T01:06:34.837Z,4.05
2023-06-11T01:09:04.429Z,3.25
2023-06-11T01:11:36.556Z,3.30
2023-06-11T01:14:08.456Z,3.25
2023-06-11T01:16:55.140Z,3.50
2023-06-11T01:20:11.294Z,3.20
2023-06-11T01:22:58.410Z,3.38
2023-06-11T01:25:38.524Z,3.17
2023-06-11T01:28:25.778Z,3.13
2023-06-11T01:30:54.258Z,3.30
2023-06-11T01:33:25.808Z,2.92
2023-06-11T01:35:59.560Z,4.93
2023-06-11T01:38:36.181Z,2.80
2023-06-11T01:41:04.982Z,3.03
2023-06-11T01:43:34.364Z,2.72
2023-06-11T01:46:04.197Z,2.60
2023-06-11T01:48:33.707Z,2.72
2023-06-11T01:51:01.574Z,3.25
2023-06-11T01:53:29.556Z,2.90
2023-06-11T01:55:58.089Z,2.70
2023-06-11T01:58:27.528Z,2.40
2023-06-11T02:00:55.300Z,2.50
2023-06-11T02:03:23.341Z,2.90
2023-06-11T02:05:51.409Z,2.65
2023-06-11T02:08:19.549Z,3.20
2023-06-11T02:10:47.525Z,3.05
2023-06-11T02:13:15.625Z,2.72
2023-06-11T02:15:43.461Z,3.08
2023-06-11T02:18:11.502Z,2.50
2023-06-11T02:20:38.825Z,2.38
2023-06-11T02:23:07.294Z,2.75
2023-06-11T02:25:35.187Z,2.75
2023-06-11T02:28:06.674Z,3.08
2023-06-11T02:30:34.573Z,2.45
2023-06-11T02:33:03.069Z,2.38
2023-06-11T02:35:32.588Z,2.22
2023-06-11T02:38:01.187Z,2.65
2023-06-11T02:40:29.026Z,2.85
2023-06-11T02:42:56.971Z,2.60
2023-06-11T02:45:24.625Z,2.60
2023-06-11T02:47:52.588Z,2.58
2023-06-11T02:50:20.603Z,2.50
2023-06-11T02:52:48.540Z,2.25
2023-06-11T02:55:16.351Z,2.65
2023-06-11T02:57:44.786Z,2.40
2023-06-11T03:00:12.940Z,2.58
2023-06-11T03:02:41.126Z,2.50
2023-06-11T03:05:09.873Z,2.78
2023-06-11T03:07:39.162Z,2.58
2023-06-11T03:10:08.819Z,2.67
2023-06-11T03:12:36.709Z,2.42
2023-06-11T03:15:05.351Z,2.50
2023-06-11T03:17:33.355Z,2.70
2023-06-11T03:20:01.907Z,2.40
2023-06-11T03:22:30.676Z,3.05
2023-06-11T03:24:58.378Z,2.53
2023-06-11T03:27:33.590Z,2.45
2023-06-11T03:30:01.473Z,2.90
2023-06-11T03:32:31.072Z,3.10
2023-06-11T03:34:58.892Z,2.65
2023-06-11T03:37:27.359Z,2.05
2023-06-11T03:39:58.442Z,2.30
2023-06-11T03:42:29.889Z,2.33
2023-06-11T03:44:57.855Z,2.67
2023-06-11T03:47:27.688Z,2.50
2023-06-11T03:49:55.748Z,2.38
2023-06-11T03:52:24.036Z,2.78
2023-06-11T03:54:52.346Z,2.50
2023-06-11T03:57:20.599Z,2.58
2023-06-11T03:59:49.087Z,2.22
2023-06-11T04:02:17.261Z,2.67
2023-06-11T04:04:47.284Z,2.85
2023-06-11T04:07:15.536Z,2.22
2023-06-11T04:09:43.247Z,2.20
2023-06-11T04:12:11.573Z,2.22
2023-06-11T04:14:39.362Z,2.00
2023-06-11T04:17:08.171Z,2.38
2023-06-11T04:19:36.021Z,2.35
2023-06-11T04:22:05.411Z,2.60
2023-06-11T04:24:33.189Z,2.30
2023-06-11T04:27:01.605Z,2.67
2023-06-11T04:29:30.634Z,2.22
2023-06-11T04:34:58.448Z,2.22
2023-06-11T04:37:31.270Z,2.40
2023-06-11T04:40:10.590Z,2.50
2023-06-11T04:42:42.158Z,2.42
2023-06-11T04:45:12.090Z,2.50
2023-06-11T04:47:41.938Z,3.35
2023-06-11T04:50:10.472Z,2.08
2023-06-11T04:52:44.004Z,2.85
2023-06-11T04:55:13.759Z,2.40
2023-06-11T04:57:43.066Z,2.15
2023-06-11T05:00:14.689Z,2.53
2023-06-11T05:05:17.096Z,2.20
2023-06-11T05:07:44.926Z,2.65
2023-06-11T05:10:14.555Z,2.67
2023-06-11T05:12:42.538Z,2.65
2023-06-11T05:15:11.266Z,2.40
2023-06-11T05:17:40.731Z,2.50
2023-06-11T05:20:10.278Z,2.67
2023-06-11T05:22:38.908Z,2.25
2023-06-11T05:25:08.863Z,2.42
2023-06-11T05:27:37.339Z,2.88
2023-06-11T05:30:07.961Z,2.28
2023-06-11T05:32:37.882Z,2.45
2023-06-11T05:35:07.305Z,2.33
2023-06-11T05:37:37.277Z,2.20
2023-06-11T05:40:06.574Z,2.28
2023-06-11T05:42:35.254Z,2.42
2023-06-11T05:45:03.170Z,2.20
2023-06-11T05:47:31.589Z,2.38
2023-06-11T05:50:00.237Z,2.30
2023-06-11T05:52:28.861Z,2.58
2023-06-11T05:54:56.592Z,2.33
2023-06-11T05:57:26.054Z,2.25
2023-06-11T05:59:56.954Z,2.00
2023-06-11T06:02:28.516Z,2.45
2023-06-11T06:04:58.941Z,2.03
2023-06-11T06:07:27.081Z,2.08
2023-06-11T06:09:56.457Z,2.13
2023-06-11T06:12:24.963Z,2.20
2023-06-11T06:14:52.896Z,2.33
2023-06-11T06:17:21.570Z,2.60
2023-06-11T06:19:49.475Z,2.40
2023-06-11T06:22:19.687Z,2.10
2023-06-11T06:24:48.437Z,2.60
2023-06-11T06:27:16.836Z,2.30
2023-06-11T06:29:45.617Z,2.45
2023-06-11T06:32:13.542Z,2.20
2023-06-11T06:34:41.993Z,2.55
2023-06-11T06:37:12.822Z,2.30
2023-06-11T06:39:44.074Z,2.20
2023-06-11T06:42:12.288Z,2.50
2023-06-11T06:47:16.246Z,2.50
2023-06-11T06:49:44.829Z,2.50
2023-06-11T06:52:13.435Z,2.10
2023-06-11T06:54:42.602Z,2.28
2023-06-11T06:57:12.173Z,2.50
2023-06-11T06:59:40.078Z,2.50
2023-06-11T07:02:10.030Z,2.47
2023-06-11T07:04:39.035Z,2.05
2023-06-11T07:07:06.883Z,2.50
2023-06-11T07:09:35.458Z,1.95
2023-06-11T07:12:04.238Z,2.15
2023-06-11T07:14:33.013Z,1.98
2023-06-11T07:17:02.496Z,2.15
2023-06-11T07:19:30.218Z,2.17
2023-06-11T07:21:58.289Z,2.20
2023-06-11T07:24:26.940Z,1.83
2023-06-11T07:26:54.885Z,2.10
2023-06-11T07:29:23.059Z,2.05
2023-06-11T07:31:51.147Z,1.90
2023-06-11T07:34:20.727Z,1.83
2023-06-11T07:36:49.037Z,1.58
2023-06-11T07:39:16.753Z,1.90
2023-06-11T07:41:45.405Z,1.73
2023-06-11T07:44:13.252Z,1.75
2023-06-11T07:46:42.108Z,2.53
2023-06-11T07:49:09.953Z,1.70
2023-06-11T07:51:38.404Z,1.70
2023-06-11T07:54:09.105Z,1.77
2023-06-11T07:56:37.544Z,1.80
2023-06-11T07:59:05.367Z,1.80
2023-06-11T08:01:33.252Z,1.45
2023-06-11T08:04:00.943Z,1.83
2023-06-11T08:06:29.531Z,1.92
2023-06-11T08:08:58.030Z,1.80
2023-06-11T08:11:26.712Z,1.60
2023-06-11T08:13:54.389Z,1.70
2023-06-11T08:16:22.771Z,2.00
2023-06-11T08:18:50.545Z,1.80
2023-06-11T08:21:18.676Z,2.33
2023-06-11T08:23:47.074Z,1.70
2023-06-11T08:26:15.671Z,1.70
2023-06-11T08:28:43.445Z,1.88
2023-06-11T08:31:12.148Z,1.55
2023-06-11T08:33:39.885Z,1.85
2023-06-11T08:36:08.559Z,1.60
2023-06-11T08:38:38.786Z,2.00
2023-06-11T08:41:06.998Z,1.85
2023-06-11T08:43:34.865Z,1.67
2023-06-11T08:46:03.138Z,1.95
2023-06-11T08:48:33.908Z,1.88
2023-06-11T08:51:03.451Z,1.98
2023-06-11T08:53:31.441Z,1.77
2023-06-11T08:56:00.382Z,1.88
2023-06-11T08:58:28.826Z,1.83
2023-06-11T09:00:57.124Z,2.00
2023-06-11T09:03:25.014Z,2.05
2023-06-11T09:05:52.996Z,2.22
2023-06-11T09:08:20.855Z,2.05
2023-06-11T09:10:52.930Z,1.73
2023-06-11T09:13:25.634Z,2.10
2023-06-11T09:15:56.680Z,2.30
2023-06-11T09:18:26.159Z,1.90
2023-06-11T09:21:01.389Z,2.33
2023-06-11T09:23:31.890Z,2.55
2023-06-11T09:26:03.867Z,2.40
2023-06-11T09:28:33.583Z,1.75
2023-06-11T09:31:05.104Z,2.00
2023-06-11T09:33:34.016Z,2.22
2023-06-11T09:36:02.534Z,1.98
2023-06-11T09:38:34.986Z,2.42
2023-06-11T09:41:06.011Z,1.98
2023-06-11T09:43:35.408Z,2.25
2023-06-11T09:46:03.632Z,2.53
2023-06-11T09:48:31.644Z,2.88
2023-06-11T09:51:02.533Z,2.10
2023-06-11T09:53:34.763Z,2.38
2023-06-11T09:56:11.082Z,1.88
2023-06-11T09:58:40.872Z,1.95
2023-06-11T10:01:09.249Z,2.13
2023-06-11T10:03:37.131Z,2.40
2023-06-11T10:06:17.626Z,2.13
2023-06-11T10:08:47.021Z,2.33
2023-06-11T10:11:15.597Z,2.50
2023-06-11T10:13:44.342Z,2.30
2023-06-11T10:16:12.968Z,2.30
2023-06-11T10:18:40.704Z,2.03
2023-06-11T10:21:08.648Z,2.03
2023-06-11T10:23:38.380Z,2.47
2023-06-11T10:26:07.695Z,2.60
2023-06-11T10:28:42.334Z,1.90
2023-06-11T10:31:10.221Z,2.42
2023-06-11T10:33:44.674Z,2.10
2023-06-11T10:36:35.572Z,2.42
2023-06-11T10:39:06.967Z,3.20
2023-06-11T10:41:39.293Z,2.38
2023-06-11T10:44:07.946Z,2.60
2023-06-11T10:46:53.633Z,3.47
2023-06-11T10:49:27.219Z,2.40
2023-06-11T10:51:56.713Z,2.60
2023-06-11T10:54:28.653Z,3.13
2023-06-11T10:56:59.550Z,2.67
2023-06-11T10:59:27.322Z,2.33
2023-06-11T11:01:56.037Z,2.47
2023-06-11T11:04:24.125Z,2.55
2023-06-11T11:06:56.437Z,2.67
2023-06-11T11:09:24.468Z,2.60
2023-06-11T11:11:52.645Z,2.60
2023-06-11T11:14:20.415Z,2.80
2023-06-11T11:16:49.078Z,2.83
2023-06-11T11:19:17.056Z,3.10
2023-06-11T11:21:52.411Z,2.35
2023-06-11T11:24:20.422Z,2.17
2023-06-11T11:26:48.756Z,2.13
2023-06-11T11:29:16.535Z,2.80
2023-06-11T11:31:46.379Z,2.42
2023-06-11T11:34:14.196Z,2.53
2023-06-11T11:36:46.684Z,2.72
2023-06-11T11:39:16.259Z,2.40
2023-06-11T11:41:54.863Z,2.45
2023-06-11T11:44:23.490Z,2.28
2023-06-11T11:46:57.697Z,3.28
2023-06-11T11:49:33.519Z,3.20
2023-06-11T11:52:02.059Z,3.05
2023-06-11T11:54:29.850Z,3.00
2023-06-11T11:57:05.058Z,3.03
2023-06-11T11:59:41.078Z,3.40
2023-06-11T12:02:09.578Z,2.85
2023-06-11T12:04:43.843Z,3.20
2023-06-11T12:07:18.519Z,3.47
2023-06-11T12:09:46.237Z,2.53
2023-06-11T12:12:14.096Z,2.90
2023-06-11T12:14:41.874Z,3.08
2023-06-11T12:17:12.680Z,3.05
2023-06-11T12:19:41.228Z,3.30
2023-06-11T12:22:09.341Z,2.78
2023-06-11T12:24:37.832Z,3.08
2023-06-11T12:27:11.248Z,3.03
2023-06-11T12:29:40.182Z,3.65
2023-06-11T12:32:14.731Z,3.75
2023-06-11T12:34:42.456Z,2.63
2023-06-11T12:37:11.752Z,3.40
2023-06-11T12:39:39.463Z,3.03
2023-06-11T12:42:07.630Z,2.90
2023-06-11T12:44:35.772Z,2.85
2023-06-11T12:47:03.848Z,3.28
2023-06-11T12:49:32.818Z,2.90
2023-06-11T12:52:01.099Z,3.00
2023-06-11T12:54:28.959Z,3.28
2023-06-11T12:56:57.195Z,3.90
2023-06-11T12:59:24.968Z,3.75
2023-06-11T13:01:53.410Z,3.20
2023-06-11T13:04:21.300Z,2.67
2023-06-11T13:06:49.691Z,3.00
2023-06-11T13:09:17.504Z,3.33
2023-06-11T13:11:46.016Z,3.17
2023-06-11T13:14:18.953Z,3.20
2023-06-11T13:16:47.411Z,2.85
2023-06-11T13:19:15.269Z,3.30
2023-06-11T13:21:43.213Z,3.53
2023-06-11T13:24:10.811Z,3.92
2023-06-11T13:26:39.151Z,3.10
2023-06-11T13:29:07.239Z,3.08
2023-06-11T13:31:35.633Z,3.65
2023-06-11T13:34:03.592Z,2.78
2023-06-11T13:36:32.837Z,3.20
2023-06-11T13:39:00.551Z,4.35
2023-06-11T13:41:29.208Z,3.92
2023-06-11T13:43:56.937Z,3.45
2023-06-11T13:46:25.055Z,3.20
2023-06-11T13:48:52.711Z,3.30
2023-06-11T13:51:22.220Z,3.80
2023-06-11T13:53:50.797Z,3.00
2023-06-11T13:56:19.372Z,3.42
2023-06-11T13:58:47.390Z,3.53
2023-06-11T14:01:15.745Z,14.60
2023-06-11T14:03:43.612Z,3.05
2023-06-11T14:06:12.114Z,3.13
2023-06-11T14:08:39.970Z,4.10
2023-06-11T14:11:10.937Z,3.20
2023-06-11T14:13:38.540Z,3.00
2023-06-11T14:16:06.965Z,3.47
2023-06-11T14:18:34.761Z,3.72
2023-06-11T14:21:03.165Z,3.00
2023-06-11T14:23:30.925Z,3.03
2023-06-11T14:25:58.917Z,2.78
2023-06-11T14:28:26.637Z,3.10
2023-06-11T14:30:54.520Z,3.40
2023-06-11T14:33:22.330Z,3.30
2023-06-11T14:35:51.814Z,3.58
2023-06-11T14:38:19.611Z,3.33
2023-06-11T14:40:47.678Z,7.00
2023-06-11T14:43:15.565Z,5.68
2023-06-11T14:45:43.251Z,5.65
2023-06-11T14:48:11.011Z,7.03
2023-06-11T14:50:39.202Z,4.75
2023-06-11T14:53:09.157Z,3.63
2023-06-11T14:55:37.926Z,4.90
2023-06-11T14:58:05.609Z,3.80
2023-06-11T15:00:33.591Z,3.15
2023-06-11T15:03:01.793Z,3.45
2023-06-11T15:05:30.026Z,3.55
2023-06-11T15:07:57.639Z,3.55
2023-06-11T15:10:25.598Z,4.05
2023-06-11T15:12:53.879Z,3.22
2023-06-11T15:15:22.434Z,3.20
2023-06-11T15:17:50.226Z,3.15
2023-06-11T15:20:18.832Z,3.67
2023-06-11T15:22:46.472Z,6.45
2023-06-11T15:25:14.440Z,3.45
2023-06-11T15:27:42.912Z,3.17
2023-06-11T15:30:11.688Z,3.00
2023-06-11T15:32:40.208Z,2.80
2023-06-11T15:35:09.063Z,7.55
2023-06-11T15:37:37.014Z,4.35
2023-06-11T15:40:05.662Z,4.85
2023-06-11T15:42:33.431Z,5.10
2023-06-11T15:45:01.859Z,4.32
2023-06-11T15:47:30.867Z,3.13
2023-06-11T15:49:59.052Z,3.03
2023-06-11T15:52:26.834Z,3.33
2023-06-11T15:54:54.692Z,3.15
2023-06-11T15:57:22.972Z,3.20
2023-06-11T15:59:51.604Z,3.30
2023-06-11T16:02:19.406Z,3.55
2023-06-11T16:04:49.390Z,3.28
2023-06-11T16:07:17.669Z,4.80
2023-06-11T16:09:47.613Z,3.00
2023-06-11T16:12:16.102Z,2.97
2023-06-11T16:14:44.413Z,2.80
2023-06-11T16:17:12.785Z,3.40
2023-06-11T16:19:41.245Z,3.15
2023-06-11T16:22:12.157Z,3.47
2023-06-11T16:24:41.273Z,4.80
2023-06-11T16:27:08.725Z,3.28
2023-06-11T16:29:37.109Z,3.55
2023-06-11T16:32:05.500Z,3.38
2023-06-11T16:34:33.715Z,3.20
2023-06-11T16:37:01.649Z,3.20
2023-06-11T16:39:29.761Z,2.90
2023-06-11T16:41:58.862Z,3.22
2023-06-11T16:44:26.821Z,2.90
2023-06-11T16:46:54.677Z,3.35
2023-06-11T16:49:22.869Z,3.10
2023-06-11T16:51:50.853Z,2.53
2023-06-11T16:54:19.336Z,2.60
2023-06-11T16:56:47.552Z,3.08
2023-06-11T16:59:15.714Z,2.92
2023-06-11T17:01:43.784Z,3.10
2023-06-11T17:04:12.563Z,3.55
2023-06-11T17:06:41.316Z,4.38
2023-06-11T17:09:09.723Z,3.25
2023-06-11T17:11:37.662Z,3.60
2023-06-11T17:14:06.194Z,3.58
2023-06-11T17:16:34.199Z,2.90
2023-06-11T17:19:05.102Z,2.90
2023-06-11T17:21:35.334Z,3.35
2023-06-11T17:24:04.963Z,3.00
2023-06-11T17:26:34.697Z,3.88
2023-06-11T17:29:03.657Z,6.95
2023-06-11T17:31:31.694Z,2.83
2023-06-11T17:33:59.903Z,2.72
2023-06-11T17:36:27.747Z,3.30
2023-06-11T17:38:56.105Z,3.40
2023-06-11T17:41:25.160Z,3.05
2023-06-11T17:43:53.538Z,3.20
2023-06-11T17:46:21.985Z,3.38
2023-06-11T17:48:50.511Z,3.25
2023-06-11T17:51:18.147Z,3.47
2023-06-11T17:53:46.482Z,3.15
2023-06-11T17:56:14.781Z,2.75
2023-06-11T17:58:42.842Z,2.92
2023-06-11T18:01:11.266Z,2.90
2023-06-11T18:03:39.974Z,5.35
2023-06-11T18:06:07.973Z,3.40
2023-06-11T18:08:37.260Z,2.78
2023-06-11T18:11:05.231Z,3.13
2023-06-11T18:13:33.805Z,3.72
2023-06-11T18:16:02.714Z,3.30
2023-06-11T18:18:33.131Z,3.05
2023-06-11T18:21:00.912Z,3.67
2023-06-11T18:23:29.564Z,4.20
2023-06-11T18:25:58.066Z,3.70
2023-06-11T18:28:26.816Z,4.53
2023-06-11T18:30:55.416Z,4.13
2023-06-11T18:33:24.044Z,4.80
2023-06-11T18:35:52.079Z,3.55
2023-06-11T18:38:20.758Z,5.35
2023-06-11T18:40:49.164Z,4.72
2023-06-11T18:43:17.715Z,4.20
2023-06-11T18:45:46.597Z,3.53
2023-06-11T18:48:16.401Z,4.60
2023-06-11T18:50:44.765Z,3.65
2023-06-11T18:53:13.941Z,3.88
2023-06-11T18:55:42.724Z,3.17
2023-06-11T18:58:11.372Z,3.25
2023-06-11T19:00:39.069Z,3.53
2023-06-11T19:03:07.210Z,3.20
2023-06-11T19:05:35.508Z,3.95
2023-06-11T19:08:04.147Z,3.95
2023-06-11T19:10:32.184Z,4.65
2023-06-11T19:13:01.755Z,4.10
2023-06-11T19:15:29.831Z,4.13
2023-06-11T19:17:59.607Z,9.82
2023-06-11T19:20:31.253Z,5.57
2023-06-11T19:22:59.662Z,6.22
2023-06-11T19:25:27.592Z,5.50
2023-06-11T19:27:56.070Z,5.13
2023-06-11T19:30:25.086Z,4.10
2023-06-11T19:32:54.124Z,5.30
2023-06-11T19:35:22.014Z,5.75
2023-06-11T19:37:50.624Z,5.47
2023-06-11T19:40:18.401Z,5.90
2023-06-11T19:42:47.585Z,5.47
2023-06-11T19:45:19.213Z,5.30
2023-06-11T19:47:48.120Z,4.15
2023-06-11T19:50:16.483Z,4.75
2023-06-11T19:52:45.212Z,3.95
2023-06-11T19:55:18.398Z,4.30
2023-06-11T19:57:47.089Z,4.13
2023-06-11T20:00:16.291Z,4.00
2023-06-11T20:02:44.709Z,3.92
2023-06-11T20:05:13.210Z,3.92
2023-06-11T20:07:41.551Z,4.82
2023-06-11T20:10:09.970Z,5.28
2023-06-11T20:12:38.834Z,3.97
2023-06-11T20:15:07.263Z,4.60
2023-06-11T20:17:35.601Z,5.05
2023-06-11T20:20:04.072Z,4.75
2023-06-11T20:22:33.181Z,5.25
2023-06-11T20:25:01.250Z,5.22
2023-06-11T20:27:30.344Z,5.30
2023-06-11T20:29:58.256Z,4.50
2023-06-11T20:32:26.816Z,5.25
2023-06-11T20:34:54.716Z,5.05
2023-06-11T20:37:23.420Z,4.70
2023-06-11T20:39:51.865Z,4.57
2023-06-11T20:42:20.252Z,4.65
2023-06-11T20:44:48.279Z,4.75
2023-06-11T20:47:17.033Z,4.65
2023-06-11T20:49:44.939Z,5.25
2023-06-11T20:52:13.590Z,5.10
2023-06-11T20:54:41.503Z,5.03
2023-06-11T20:57:09.722Z,4.80
2023-06-11T20:59:37.553Z,5.60
2023-06-11T21:02:06.397Z,5.00
2023-06-11T21:04:36.686Z,5.18
2023-06-11T21:07:07.734Z,5.43
2023-06-11T21:09:35.760Z,6.13
2023-06-11T21:12:04.651Z,5.20
2023-06-11T21:14:32.515Z,5.25
2023-06-11T21:17:01.280Z,5.70
2023-06-11T21:19:29.073Z,4.72
2023-06-11T21:21:57.636Z,5.10
2023-06-11T21:24:25.589Z,5.75
2023-06-11T21:26:54.104Z,5.20
2023-06-11T21:29:22.064Z,5.18
2023-06-11T21:31:50.451Z,5.10
2023-06-11T21:34:18.161Z,5.22
2023-06-11T21:36:47.814Z,5.43
2023-06-11T21:39:16.325Z,6.38
2023-06-11T21:41:44.848Z,5.93
2023-06-11T21:44:14.537Z,5.72
2023-06-11T21:46:43.584Z,5.88
2023-06-11T21:49:11.485Z,6.30
2023-06-11T21:51:39.904Z,6.00
2023-06-11T21:54:07.682Z,7.13
2023-06-11T21:56:35.689Z,7.22
2023-06-11T21:59:03.476Z,5.90
2023-06-11T22:01:31.892Z,6.07
2023-06-11T22:03:59.816Z,7.13
2023-06-11T22:06:28.155Z,6.57
2023-06-11T22:08:55.951Z,7.50
2023-06-11T22:11:24.223Z,7.93
2023-06-11T22:13:51.790Z,7.75
2023-06-11T22:16:22.352Z,6.80
2023-06-11T22:18:52.766Z,6.78
2023-06-11T22:21:23.047Z,5.88
2023-06-11T22:23:52.309Z,6.57
2023-06-11T22:26:22.989Z,6.93
2023-06-11T22:28:52.170Z,6.53
2023-06-11T22:31:20.866Z,6.28
2023-06-11T22:33:48.889Z,6.25
2023-06-11T22:36:17.243Z,6.78
2023-06-11T22:38:45.321Z,6.22
2023-06-11T22:41:13.774Z,5.93
2023-06-11T22:43:41.681Z,6.05
2023-06-11T22:46:09.835Z,5.47
2023-06-11T22:48:37.822Z,6.20
2023-06-11T22:51:11.107Z,5.80
2023-06-11T22:53:39.018Z,5.43
2023-06-11T22:56:08.177Z,6.15
2023-06-11T22:58:36.296Z,5.68
2023-06-11T23:01:04.575Z,5.72
2023-06-11T23:03:32.458Z,5.47
2023-06-11T23:06:01.047Z,5.90
2023-06-11T23:08:29.401Z,5.13
2023-06-11T23:10:57.637Z,5.88
2023-06-11T23:13:25.484Z,6.10
2023-06-11T23:15:53.836Z,6.50
2023-06-11T23:18:25.370Z,5.80
2023-06-11T23:20:55.101Z,6.38
2023-06-11T23:23:23.744Z,5.80
2023-06-11T23:25:52.243Z,6.00
2023-06-11T23:28:24.072Z,5.80
2023-06-11T23:30:53.650Z,5.55
2023-06-11T23:33:21.502Z,5.90
2023-06-11T23:35:49.366Z,5.85
2023-06-11T23:38:17.502Z,6.03
2023-06-11T23:40:45.624Z,5.78
2023-06-11T23:43:13.511Z,5.72
2023-06-11T23:45:41.821Z,5.70
2023-06-11T23:48:09.624Z,5.78
2023-06-11T23:50:43.096Z,5.47
2023-06-11T23:55:40.929Z,5.38
2023-06-11T23:58:23.364Z,5.80
